Time;durP1;ratioP1;P1;durP2;ratioP2;P2;SDS_P1;SDS_P2;PMS_P1;PMS_P2;Temp;Humidity;BMP_temperature;BMP_pressure;BME280_temperature;BME280_humidity;BME280_pressure;Samples;Min_cycle;Max_cycle;Signal;HPM_P1;HPM_P2
2023/03/20 00:01:40;;;;;;;59.63;5.20;;;;;;;;;;5057434;28;20520;-69
2023/03/20 00:04:07;;;;;;;59.87;5.20;;;;;;;;;;5057338;28;20797;-69
2023/03/20 00:06:35;;;;;;;61.63;5.37;;;;;;;;;;5056568;28;20476;-69
2023/03/20 00:09:03;;;;;;;60.03;5.10;;;;;;;;;;5057969;28;20449;-69
2023/03/20 00:11:32;;;;;;;59.90;5.47;;;;;;;;;;5057672;28;20542;-69
2023/03/20 00:14:01;;;;;;;60.67;4.93;;;;;;;;;;5057101;28;20448;-69
2023/03/20 00:16:30;;;;;;;59.60;5.03;;;;;;;;;;5057038;28;20468;-69
2023/03/20 00:18:58;;;;;;;60.27;5.20;;;;;;;;;;5056231;28;20452;-69
2023/03/20 00:21:26;;;;;;;60.57;5.70;;;;;;;;;;5057250;28;20566;-69
2023/03/20 00:23:54;;;;;;;60.83;6.23;;;;;;;;;;5058056;28;20837;-69
2023/03/20 00:26:23;;;;;;;62.20;6.93;;;;;;;;;;5057865;28;20469;-69
2023/03/20 00:28:51;;;;;;;62.60;7.10;;;;;;;;;;5057015;28;20474;-69
2023/03/20 00:31:23;;;;;;;62.57;7.27;;;;;;;;;;5057968;28;20535;-69
2023/03/20 00:33:50;;;;;;;62.73;8.00;;;;;;;;;;5057871;28;20484;-69
2023/03/20 00:36:17;;;;;;;61.33;6.87;;;;;;;;;;5057210;28;20468;-69
2023/03/20 00:38:44;;;;;;;61.70;7.63;;;;;;;;;;5055838;28;20444;-69
2023/03/20 00:41:19;;;;;;;62.17;7.00;;;;;;;;;;5057397;28;20449;-69
2023/03/20 00:43:47;;;;;;;62.10;7.50;;;;;;;;;;5057775;28;20819;-69
2023/03/20 00:46:15;;;;;;;61.73;7.40;;;;;;;;;;5057524;28;20461;-69
2023/03/20 00:48:43;;;;;;;62.63;8.00;;;;;;;;;;5056623;28;20448;-69
2023/03/20 00:51:10;;;;;;;62.10;7.60;;;;;;;;;;5057897;28;20456;-69
2023/03/20 00:53:37;;;;;;;60.47;6.20;;;;;;;;;;5057567;28;20488;-69
2023/03/20 00:56:05;;;;;;;60.77;6.93;;;;;;;;;;5057488;28;20475;-69
2023/03/20 00:58:32;;;;;;;61.57;7.13;;;;;;;;;;5057456;28;20448;-69
2023/03/20 01:00:59;;;;;;;62.47;6.70;;;;;;;;;;5057184;28;20819;-69
2023/03/20 01:03:28;;;;;;;60.90;6.83;;;;;;;;;;5057362;28;20543;-69
2023/03/20 01:05:56;;;;;;;61.03;6.30;;;;;;;;;;5057332;28;20453;-69
2023/03/20 01:08:24;;;;;;;61.33;6.83;;;;;;;;;;5057182;28;20465;-69
2023/03/20 01:10:53;;;;;;;60.40;6.57;;;;;;;;;;5057054;28;20444;-69
2023/03/20 01:13:22;;;;;;;60.70;6.37;;;;;;;;;;5057321;28;20869;-69
2023/03/20 01:15:50;;;;;;;60.67;5.87;;;;;;;;;;5058001;28;20538;-69
2023/03/20 01:18:18;;;;;;;60.10;5.97;;;;;;;;;;5057677;28;20483;-69
2023/03/20 01:20:46;;;;;;;59.50;5.67;;;;;;;;;;5057640;28;20479;-69
2023/03/20 01:23:14;;;;;;;65.13;6.00;;;;;;;;;;5057660;28;20448;-69
2023/03/20 01:25:41;;;;;;;59.97;6.60;;;;;;;;;;5057337;28;20452;-69
2023/03/20 01:28:14;;;;;;;61.43;5.97;;;;;;;;;;5057095;28;20480;-69
2023/03/20 01:30:41;;;;;;;62.43;7.10;;;;;;;;;;5057197;28;20543;-69
2023/03/20 01:33:13;;;;;;;60.97;6.10;;;;;;;;;;5057691;28;20484;-69
2023/03/20 01:35:40;;;;;;;61.20;6.77;;;;;;;;;;5057847;28;20466;-69
2023/03/20 01:38:12;;;;;;;64.87;7.20;;;;;;;;;;5058056;28;20478;-69
2023/03/20 01:40:44;;;;;;;61.10;6.40;;;;;;;;;;5057974;28;20471;-69
2023/03/20 01:43:14;;;;;;;60.20;6.90;;;;;;;;;;5058141;28;20509;-69
2023/03/20 01:45:44;;;;;;;62.63;7.27;;;;;;;;;;5058354;28;20460;-69
2023/03/20 01:48:15;;;;;;;62.30;7.73;;;;;;;;;;5057163;28;20843;-69
2023/03/20 01:50:42;;;;;;;61.20;6.90;;;;;;;;;;5057300;28;20448;-69
2023/03/20 01:53:14;;;;;;;61.93;7.70;;;;;;;;;;5057419;28;20483;-69
2023/03/20 01:55:42;;;;;;;61.50;7.53;;;;;;;;;;5058169;28;20467;-69
2023/03/20 01:58:13;;;;;;;60.70;6.63;;;;;;;;;;5057784;28;20498;-69
2023/03/20 02:00:40;;;;;;;63.70;8.40;;;;;;;;;;5057172;28;20460;-69
2023/03/20 02:03:09;;;;;;;61.57;7.10;;;;;;;;;;5057200;28;20468;-69
2023/03/20 02:05:37;;;;;;;61.70;7.50;;;;;;;;;;5060320;28;20443;-69
2023/03/20 02:08:09;;;;;;;62.20;7.37;;;;;;;;;;5061265;28;20472;-69
2023/03/20 02:10:37;;;;;;;62.20;7.63;;;;;;;;;;5061259;28;20443;-69
2023/03/20 02:13:05;;;;;;;61.30;7.03;;;;;;;;;;5061132;28;20591;-69
2023/03/20 02:15:32;;;;;;;62.60;7.37;;;;;;;;;;5061015;28;20487;-69
2023/03/20 02:17:59;;;;;;;60.80;6.90;;;;;;;;;;5061559;28;21015;-69
2023/03/20 02:20:31;;;;;;;62.47;7.80;;;;;;;;;;5061419;28;20458;-69
2023/03/20 02:23:26;;;;;;;62.00;7.53;;;;;;;;;;5061223;28;20455;-69
2023/03/20 02:26:07;;;;;;;62.80;8.30;;;;;;;;;;5061120;28;20454;-69
2023/03/20 02:28:51;;;;;;;62.07;7.90;;;;;;;;;;5061093;28;20462;-69
2023/03/20 02:31:28;;;;;;;62.10;8.47;;;;;;;;;;5061435;28;20444;-69
2023/03/20 02:34:10;;;;;;;61.20;7.50;;;;;;;;;;5060894;28;20498;-69
2023/03/20 02:36:52;;;;;;;63.90;8.70;;;;;;;;;;5057330;28;20851;-69
2023/03/20 02:39:31;;;;;;;62.67;8.70;;;;;;;;;;5056914;28;20460;-69
2023/03/20 02:42:02;;;;;;;63.83;8.80;;;;;;;;;;5059903;28;20828;-69
2023/03/20 02:44:33;;;;;;;61.37;7.40;;;;;;;;;;5060247;28;20535;-69
2023/03/20 02:47:03;;;;;;;61.70;7.40;;;;;;;;;;5059726;28;20484;-69
2023/03/20 02:49:40;;;;;;;64.37;8.80;;;;;;;;;;5059138;28;20448;-69
2023/03/20 02:52:12;;;;;;;61.90;7.70;;;;;;;;;;5059291;28;20458;-69
2023/03/20 02:54:44;;;;;;;63.07;8.50;;;;;;;;;;5059170;28;20447;-69
2023/03/20 02:57:16;;;;;;;65.47;9.70;;;;;;;;;;5058813;28;20472;-69
2023/03/20 02:59:46;;;;;;;63.57;8.63;;;;;;;;;;5057057;28;20443;-69
2023/03/20 03:02:16;;;;;;;63.10;8.90;;;;;;;;;;5059424;28;20448;-69
2023/03/20 03:04:45;;;;;;;63.30;9.13;;;;;;;;;;5059050;28;20948;-69
2023/03/20 03:07:14;;;;;;;62.73;9.03;;;;;;;;;;5059463;28;20500;-69
2023/03/20 03:09:45;;;;;;;64.07;9.57;;;;;;;;;;5059292;28;21016;-69
2023/03/20 03:12:13;;;;;;;63.57;8.97;;;;;;;;;;5059519;28;20456;-69
2023/03/20 03:14:42;;;;;;;68.33;9.10;;;;;;;;;;5058614;28;20484;-69
2023/03/20 03:17:10;;;;;;;63.90;8.63;;;;;;;;;;5057125;28;20992;-69
2023/03/20 03:19:40;;;;;;;66.83;9.37;;;;;;;;;;5057791;28;20458;-69
2023/03/20 03:22:07;;;;;;;63.63;8.30;;;;;;;;;;5059373;28;20502;-69
2023/03/20 03:24:35;;;;;;;64.17;9.07;;;;;;;;;;5058942;28;20447;-69
2023/03/20 03:27:07;;;;;;;62.27;7.80;;;;;;;;;;5057124;28;20477;-70
2023/03/20 03:29:36;;;;;;;62.77;7.03;;;;;;;;;;5059061;28;20828;-69
2023/03/20 03:32:06;;;;;;;65.00;8.13;;;;;;;;;;5060207;28;20460;-69
2023/03/20 03:34:34;;;;;;;62.37;8.47;;;;;;;;;;5059444;28;20495;-69
2023/03/20 03:37:03;;;;;;;61.90;8.40;;;;;;;;;;5059662;28;20479;-69
2023/03/20 03:39:36;;;;;;;61.40;7.63;;;;;;;;;;5058813;28;20456;-69
2023/03/20 03:42:07;;;;;;;62.23;7.03;;;;;;;;;;5059936;28;20456;-69
2023/03/20 03:44:38;;;;;;;61.60;7.50;;;;;;;;;;5058375;28;20449;-69
2023/03/20 03:47:07;;;;;;;62.70;7.43;;;;;;;;;;5058518;28;20480;-69
2023/03/20 03:49:36;;;;;;;62.43;7.63;;;;;;;;;;5058486;28;20444;-69
2023/03/20 03:52:06;;;;;;;62.20;8.07;;;;;;;;;;5059325;28;20451;-69
2023/03/20 03:54:35;;;;;;;63.50;7.73;;;;;;;;;;5058199;28;20993;-69
2023/03/20 03:57:03;;;;;;;62.37;7.47;;;;;;;;;;5057962;28;20480;-69
2023/03/20 03:59:34;;;;;;;61.90;6.70;;;;;;;;;;5058689;28;20451;-69
2023/03/20 04:02:03;;;;;;;61.10;6.47;;;;;;;;;;5058266;28;20479;-69
2023/03/20 04:04:30;;;;;;;61.50;6.53;;;;;;;;;;5057624;28;20456;-69
2023/03/20 04:06:58;;;;;;;60.90;6.40;;;;;;;;;;5056815;28;20475;-69
2023/03/20 04:09:25;;;;;;;61.67;6.87;;;;;;;;;;5055626;28;20456;-69
2023/03/20 04:11:53;;;;;;;60.60;5.90;;;;;;;;;;5056065;28;20463;-69
2023/03/20 04:14:20;;;;;;;60.90;5.97;;;;;;;;;;5055441;28;20484;-69
2023/03/20 04:16:49;;;;;;;60.90;7.00;;;;;;;;;;5055017;28;20479;-69
2023/03/20 04:19:16;;;;;;;60.80;6.20;;;;;;;;;;5054379;28;20456;-70
2023/03/20 04:21:44;;;;;;;61.67;6.00;;;;;;;;;;5055522;28;20444;-70
2023/03/20 04:24:11;;;;;;;59.83;6.00;;;;;;;;;;5056120;28;20455;-70
2023/03/20 04:26:39;;;;;;;63.77;5.70;;;;;;;;;;5055946;28;20526;-70
2023/03/20 04:29:06;;;;;;;60.63;6.17;;;;;;;;;;5055207;28;20949;-70
2023/03/20 04:31:34;;;;;;;60.67;6.10;;;;;;;;;;5055502;28;20444;-70
2023/03/20 04:34:02;;;;;;;60.40;6.60;;;;;;;;;;5055686;28;20486;-70
2023/03/20 04:36:29;;;;;;;64.33;6.57;;;;;;;;;;5055264;28;20464;-70
2023/03/20 04:38:56;;;;;;;60.87;6.47;;;;;;;;;;5055212;28;20449;-70
2023/03/20 04:41:23;;;;;;;60.70;6.83;;;;;;;;;;5055944;28;20455;-70
2023/03/20 04:43:50;;;;;;;62.47;6.43;;;;;;;;;;5055432;28;20937;-70
2023/03/20 04:46:17;;;;;;;62.80;6.70;;;;;;;;;;5055129;28;20480;-70
2023/03/20 04:48:45;;;;;;;61.17;6.90;;;;;;;;;;5054854;28;20454;-70
2023/03/20 04:51:13;;;;;;;60.40;6.23;;;;;;;;;;5054941;28;20828;-70
2023/03/20 04:53:40;;;;;;;62.17;6.70;;;;;;;;;;5054662;28;20494;-70
2023/03/20 04:56:08;;;;;;;61.67;6.17;;;;;;;;;;5054419;28;20444;-70
2023/03/20 04:58:35;;;;;;;65.77;6.50;;;;;;;;;;5053198;28;20451;-70
2023/03/20 05:01:02;;;;;;;62.90;6.27;;;;;;;;;;5053438;28;20450;-70
2023/03/20 05:03:29;;;;;;;62.03;6.80;;;;;;;;;;5052751;28;20440;-70
2023/03/20 05:05:56;;;;;;;63.07;7.20;;;;;;;;;;5052845;28;20458;-70
2023/03/20 05:08:25;;;;;;;60.77;6.93;;;;;;;;;;5053081;28;20444;-70
2023/03/20 05:10:52;;;;;;;60.83;5.73;;;;;;;;;;5052703;28;20448;-70
2023/03/20 05:13:19;;;;;;;62.73;6.00;;;10.10;1.00;;;;;;5052672;28;20999;-70
2023/03/20 05:15:46;;;;;;;60.30;6.13;;;10.10;1.00;;;;;;5052694;28;20460;-70
2023/03/20 05:18:13;;;;;;;60.77;6.40;;;10.10;1.00;;;;;;5052634;28;20476;-70
2023/03/20 05:20:40;;;;;;;61.10;6.37;;;10.10;1.00;;;;;;5052635;28;20452;-70
2023/03/20 05:23:07;;;;;;;60.40;6.10;;;10.10;1.00;;;;;;5052709;28;20474;-70
2023/03/20 05:25:35;;;;;;;60.30;6.00;;;10.10;1.00;;;;;;5052301;28;20456;-70
2023/03/20 05:28:02;;;;;;;60.40;6.00;;;10.20;1.00;;;;;;5052156;28;20553;-70
2023/03/20 05:30:29;;;;;;;60.57;5.70;;;10.20;1.00;;;;;;5052132;28;20448;-70
2023/03/20 05:32:56;;;;;;;60.17;5.90;;;10.10;1.00;;;;;;5052217;28;20448;-70
2023/03/20 05:35:22;;;;;;;61.23;6.30;;;10.10;1.00;;;;;;5052641;28;20480;-70
2023/03/20 05:37:49;;;;;;;60.43;5.80;;;10.10;1.00;;;;;;5052295;28;20474;-70
2023/03/20 05:40:18;;;;;;;59.00;4.40;;;10.10;1.00;;;;;;5051272;28;20530;-70
2023/03/20 05:42:46;;;;;;;60.90;4.13;;;10.10;1.00;;;;;;5052122;28;20463;-70
2023/03/20 05:45:14;;;;;;;59.60;4.57;;;10.20;1.00;;;;;;5051737;28;20459;-70
2023/03/20 05:47:41;;;;;;;61.57;4.50;;;10.20;1.00;;;;;;5052115;28;20472;-70
2023/03/20 05:50:09;;;;;;;60.27;5.33;;;10.20;1.00;;;;;;5051529;28;20832;-70
2023/03/20 05:52:36;;;;;;;60.60;5.50;;;10.30;1.00;;;;;;5051810;28;20447;-70
2023/03/20 05:55:03;;;;;;;58.90;4.20;;;10.30;1.00;;;;;;5051841;28;20491;-70
2023/03/20 05:57:31;;;;;;;59.47;4.60;;;;;;;;;;5051731;28;20530;-70
2023/03/20 06:00:00;;;;;;;59.70;4.90;;;;;;;;;;5051636;28;20459;-70
2023/03/20 06:02:27;;;;;;;63.70;5.23;;;;;;;;;;5051957;28;20832;-70
2023/03/20 06:04:54;;;;;;;58.73;4.03;;;;;;;;;;5051853;28;20447;-70
2023/03/20 06:07:21;;;;;;;59.87;4.90;;;;;;;;;;5051656;28;20902;-70
2023/03/20 06:09:48;;;;;;;61.10;5.40;;;10.40;1.00;;;;;;5051403;28;20455;-70
2023/03/20 06:12:15;;;;;;;60.33;5.13;;;;;;;;;;5051485;28;20455;-73
2023/03/20 06:14:43;;;;;;;60.03;5.00;;;;;;;;;;5051484;28;20488;-70
2023/03/20 06:17:11;;;;;;;59.70;4.73;;;10.40;1.00;;;;;;5051713;28;20838;-70
2023/03/20 06:19:38;;;;;;;62.63;6.23;;;10.40;1.00;;;;;;5051237;28;20448;-70
2023/03/20 06:22:05;;;;;;;60.87;5.67;;;;;;;;;;5051523;28;20451;-70
2023/03/20 06:24:33;;;;;;;59.90;4.80;;;;;;;;;;5051598;28;20450;-70
2023/03/20 06:27:00;;;;;;;59.20;4.53;;;;;;;;;;5051397;28;20537;-70
2023/03/20 06:29:27;;;;;;;60.07;4.73;;;10.20;1.00;;;;;;5051328;28;20539;-70
2023/03/20 06:31:54;;;;;;;59.40;4.70;;;10.40;1.00;;;;;;5051584;28;20460;-70
2023/03/20 06:34:23;;;;;;;58.70;4.63;;;10.40;1.00;;;;;;5051432;28;20481;-70
2023/03/20 06:36:50;;;;;;;60.13;5.07;;;;;;;;;;5051566;28;20471;-70
2023/03/20 06:39:17;;;;;;;58.73;4.10;;;10.60;1.00;;;;;;5050961;28;20966;-70
2023/03/20 06:41:44;;;;;;;61.20;4.83;;;10.60;1.00;;;;;;5051691;28;20458;-70
2023/03/20 06:44:11;;;;;;;58.70;4.30;;;10.80;1.00;;;;;;5051556;28;20494;-70
2023/03/20 06:46:38;;;;;;;59.87;4.40;;;;;;;;;;5051275;28;20484;-70
2023/03/20 06:49:05;;;;;;;59.10;4.43;;;10.90;1.00;;;;;;5050907;28;20535;-70
2023/03/20 06:51:33;;;;;;;59.07;4.60;;;11.00;1.00;;;;;;5053694;28;20456;-70
2023/03/20 06:54:01;;;;;;;59.60;4.67;;;11.10;1.00;;;;;;5054677;28;20486;-70
2023/03/20 06:56:28;;;;;;;61.57;4.87;;;;;;;;;;5054772;28;20558;-70
2023/03/20 06:58:54;;;;;;;59.17;5.03;;;11.30;1.00;;;;;;5054685;28;20805;-70
2023/03/20 07:01:22;;;;;;;59.87;5.23;;;11.30;1.00;;;;;;5054839;28;20535;-70
2023/03/20 07:03:49;;;;;;;59.27;4.97;;;;;;;;;;5054595;28;20448;-69
2023/03/20 07:06:17;;;;;;;64.90;5.10;;;11.20;1.00;;;;;;5054352;28;20560;-70
2023/03/20 07:08:45;;;;;;;60.27;4.60;;;11.40;1.00;;;;;;5054297;28;20519;-70
2023/03/20 07:11:13;;;;;;;59.87;4.70;;;11.40;1.00;;;;;;5054782;28;20454;-70
2023/03/20 07:13:40;;;;;;;59.20;4.70;;;11.60;1.00;;;;;;5054707;28;20459;-70
2023/03/20 07:16:08;;;;;;;59.80;4.90;;;11.70;1.00;;;;;;5054711;28;20459;-70
2023/03/20 07:18:35;;;;;;;59.13;4.50;;;11.90;1.00;;;;;;5054203;28;20455;-68
2023/03/20 07:21:05;;;;;;;64.00;4.40;;;12.10;1.00;;;;;;5054238;28;20948;-68
2023/03/20 07:23:33;;;;;;;60.10;4.47;;;;;;;;;;5054693;28;20539;-68
2023/03/20 07:26:02;;;;;;;58.37;3.97;;;;;;;;;;5054673;28;20444;-68
2023/03/20 07:28:29;;;;;;;58.97;3.90;;;;;;;;;;5054161;28;20448;-69
2023/03/20 07:30:56;;;;;;;59.07;3.93;;;12.10;1.00;;;;;;5054408;28;20444;-69
2023/03/20 07:33:22;;;;;;;62.70;4.67;;;12.20;1.00;;;;;;5054395;28;20558;-69
2023/03/20 07:35:53;;;;;;;58.93;4.00;;;12.30;1.00;;;;;;5054347;28;20488;-69
2023/03/20 07:38:20;;;;;;;60.30;4.43;;;12.20;1.00;;;;;;5054380;28;20472;-69
2023/03/20 07:40:48;;;;;;;59.17;3.93;;;12.10;1.00;;;;;;5054156;28;20455;-69
2023/03/20 07:43:16;;;;;;;58.47;3.97;;;11.90;1.00;;;;;;5054011;28;20821;-69
2023/03/20 07:45:43;;;;;;;59.00;4.17;;;11.70;1.00;;;;;;5053937;28;20478;-69
2023/03/20 07:48:10;;;;;;;58.07;3.67;;;11.50;1.00;;;;;;5053642;28;20526;-68
2023/03/20 07:50:37;;;;;;;58.40;3.30;;;11.80;1.00;;;;;;5054090;28;20832;-68
2023/03/20 07:53:04;;;;;;;60.10;3.43;;;11.80;1.00;;;;;;5054296;28;20455;-69
2023/03/20 07:55:31;;;;;;;60.07;3.70;;;12.00;1.00;;;;;;5053794;28;20941;-69
2023/03/20 07:57:58;;;;;;;58.50;3.23;;;11.80;1.00;;;;;;5053635;28;20547;-69
2023/03/20 08:00:26;;;;;;;58.37;3.53;;;11.90;1.00;;;;;;5053365;28;20451;-68
2023/03/20 08:02:52;;;;;;;57.83;3.50;;;11.80;1.00;;;;;;5052676;28;20449;-69
2023/03/20 08:05:19;;;;;;;58.90;3.43;;;11.80;1.00;;;;;;5053609;28;20448;-69
2023/03/20 08:07:46;;;;;;;58.60;3.83;;;11.70;1.00;;;;;;5053631;28;20480;-68
2023/03/20 08:10:13;;;;;;;59.73;3.50;;;11.80;1.00;;;;;;5053043;28;20451;-68
2023/03/20 08:12:40;;;;;;;59.23;4.03;;;12.00;1.00;;;;;;5053338;28;20455;-68
2023/03/20 08:15:08;;;;;;;59.17;3.77;;;12.50;1.00;;;;;;5053122;28;21019;-68
2023/03/20 08:17:36;;;;;;;59.27;4.03;;;13.00;1.00;;;;;;5053079;28;20486;-69
2023/03/20 08:20:05;;;;;;;58.27;3.53;;;13.50;1.00;;;;;;5053136;28;20475;-68
2023/03/20 08:22:32;;;;;;;58.70;3.30;;;13.10;1.00;;;;;;5053272;28;20491;-69
2023/03/20 08:24:59;;;;;;;58.63;3.30;;;13.10;1.00;;;;;;5053125;28;20877;-68
2023/03/20 08:27:26;;;;;;;58.60;3.60;;;13.10;1.00;;;;;;5052954;28;20627;-68
2023/03/20 08:29:53;;;;;;;59.00;3.60;;;13.00;1.00;;;;;;5052512;28;20463;-68
2023/03/20 08:32:20;;;;;;;58.80;3.80;;;12.70;1.00;;;;;;5052936;28;20452;-68
2023/03/20 08:34:48;;;;;;;61.40;3.50;;;12.70;1.00;;;;;;5053014;28;20480;-68
2023/03/20 08:37:14;;;;;;;59.30;3.73;;;12.70;1.00;;;;;;5052772;28;20478;-68
2023/03/20 08:39:41;;;;;;;58.37;3.67;;;12.70;1.00;;;;;;5052500;28;20501;-68
2023/03/20 08:42:08;;;;;;;59.90;3.60;;;13.30;1.00;;;;;;5052834;28;20455;-68
2023/03/20 08:44:35;;;;;;;59.13;3.00;;;13.50;1.00;;;;;;5052648;28;20447;-68
2023/03/20 08:47:02;;;;;;;58.20;3.30;;;13.10;1.00;;;;;;5052488;28;20476;-68
2023/03/20 08:49:29;;;;;;;59.73;3.80;;;13.30;1.00;;;;;;5052286;28;20444;-68
2023/03/20 08:51:57;;;;;;;58.27;3.50;;;;;;;;;;5052665;28;20448;-68
2023/03/20 08:54:24;;;;;;;59.77;3.57;;;;;;;;;;5052458;28;20448;-68
2023/03/20 08:56:52;;;;;;;58.27;3.27;;;;;;;;;;5052408;28;20468;-68
2023/03/20 08:59:19;;;;;;;57.97;3.03;;;;;;;;;;5052067;28;20929;-68
2023/03/20 09:01:47;;;;;;;58.50;3.50;;;14.10;1.00;;;;;;5052365;28;20460;-68
2023/03/20 09:04:14;;;;;;;58.03;3.40;;;14.10;1.00;;;;;;5052450;28;20825;-68
2023/03/20 09:06:41;;;;;;;58.37;3.27;;;14.80;1.00;;;;;;5052410;28;20464;-68
2023/03/20 09:09:09;;;;;;;58.70;3.37;;;14.40;1.00;;;;;;5051929;28;20444;-68
2023/03/20 09:11:37;;;;;;;58.77;3.63;;;;;;;;;;5052122;28;20456;-69
2023/03/20 09:14:04;;;;;;;58.27;3.57;;;;;;;;;;5052383;28;20446;-68
2023/03/20 09:16:30;;;;;;;59.70;3.70;;;15.90;1.00;;;;;;5051988;28;21022;-68
2023/03/20 09:18:58;;;;;;;58.10;3.37;;;;;;;;;;5051883;28;20459;-68
2023/03/20 09:21:25;;;;;;;58.50;3.23;;;16.60;1.00;;;;;;5052181;28;20474;-68
2023/03/20 09:23:51;;;;;;;58.17;3.33;;;16.70;1.00;;;;;;5051843;28;20452;-68
2023/03/20 09:26:19;;;;;;;59.17;3.97;;;16.70;1.00;;;;;;5052261;28;20461;-67
2023/03/20 09:28:46;;;;;;;58.10;3.20;;;17.00;1.00;;;;;;5052116;28;20452;-68
2023/03/20 09:31:13;;;;;;;58.27;3.70;;;16.90;1.00;;;;;;5052296;28;20448;-68
2023/03/20 09:33:40;;;;;;;57.93;3.17;;;17.20;1.00;;;;;;5052259;28;20538;-67
2023/03/20 09:36:10;;;;;;;58.47;3.33;;;;;;;;;;5051968;28;20480;-67
2023/03/20 09:38:37;;;;;;;58.13;3.20;;;;;;;;;;5051472;28;20988;-68
2023/03/20 09:41:06;;;;;;;58.87;3.80;;;;;;;;;;5034422;28;20960;-68
2023/03/20 09:43:38;;;;;;;60.77;3.50;;;;;;;;;;5052103;28;20908;-68
2023/03/20 09:46:12;;;;;;;58.20;3.07;;;;;;;;;;5051821;28;20749;-68
2023/03/20 09:48:41;;;;;;;58.37;3.13;;;;;;;;;;5051972;28;20470;-68
2023/03/20 09:51:13;;;;;;;60.67;3.47;;;;;;;;;;5051691;28;20825;-68
2023/03/20 09:53:45;;;;;;;58.40;3.30;;;18.10;1.00;;;;;;5051806;28;20444;-68
2023/03/20 09:56:15;;;;;;;57.80;2.90;;;;;;;;;;5051648;28;20553;-69
2023/03/20 09:58:46;;;;;;;58.10;2.70;;;;;;;;;;5051308;28;20448;-68
2023/03/20 10:01:15;;;;;;;58.00;2.90;;;;;;;;;;5052401;28;20444;-68
2023/03/20 10:03:47;;;;;;;57.50;3.00;;;17.60;1.00;;;;;;5051542;28;21077;-68
2023/03/20 10:06:15;;;;;;;58.60;3.00;;;17.80;1.00;;;;;;5051785;28;20440;-68
2023/03/20 10:08:43;;;;;;;59.03;3.43;;;17.60;1.00;;;;;;5051324;28;20445;-68
2023/03/20 10:11:19;;;;;;;58.20;2.87;;;;;;;;;;5051674;28;20444;-71
2023/03/20 10:13:55;;;;;;;58.07;3.20;;;;;;;;;;5051587;28;20448;-71
2023/03/20 10:16:38;;;;;;;59.77;3.63;;;16.90;1.00;;;;;;5051701;28;20570;-69
2023/03/20 10:19:11;;;;;;;58.10;3.30;;;17.00;1.00;;;;;;5051323;28;20535;-69
2023/03/20 10:21:43;;;;;;;59.53;3.80;;;16.80;1.00;;;;;;5051509;28;20454;-69
2023/03/20 10:24:18;;;;;;;59.00;3.70;;;16.70;1.00;;;;;;5051444;28;20506;-69
2023/03/20 10:26:46;;;;;;;60.00;3.70;;;;;;;;;;5054667;28;20840;-69
2023/03/20 10:29:22;;;;;;;57.87;3.33;;;;;;;;;;5055160;28;20452;-68
2023/03/20 10:31:55;;;;;;;58.50;3.87;;;16.10;1.00;;;;;;5055249;28;20444;-69
2023/03/20 10:34:27;;;;;;;60.60;4.13;;;;;;;;;;5055348;28;20825;-69
2023/03/20 10:37:02;;;;;;;60.50;3.60;;;;;;;;;;5054982;28;20492;-69
2023/03/20 10:39:36;;;;;;;60.00;4.07;;;;;;;;;;5054658;28;20447;-69
2023/03/20 10:42:05;;;;;;;60.83;3.83;;;;;;;;;;5055246;28;20448;-69
2023/03/20 10:44:35;;;;;;;58.77;3.97;;;;;;;;;;5055092;28;20451;-69
2023/03/20 10:47:04;;;;;;;59.47;3.70;;;;;;;;;;5055090;28;20468;-69
2023/03/20 10:49:35;;;;;;;59.17;4.37;;;;;;;;;;5054427;28;20951;-69
2023/03/20 10:52:03;;;;;;;59.83;3.90;;;;;;;;;;5055061;28;20445;-69
2023/03/20 10:54:33;;;;;;;58.97;4.10;;;14.80;1.00;;;;;;5054815;28;20444;-69
2023/03/20 10:57:02;;;;;;;58.73;4.03;;;14.90;1.00;;;;;;5054712;28;20511;-69
2023/03/20 10:59:36;;;;;;;63.77;4.50;;;14.80;1.00;;;;;;5054461;28;20889;-69
2023/03/20 11:02:09;;;;;;;60.63;4.13;;;;;;;;;;5054600;28;20447;-69
2023/03/20 11:04:36;;;;;;;58.43;3.60;;;;;;;;;;5054928;28;20452;-69
2023/03/20 11:07:06;;;;;;;58.63;3.97;;;;;;;;;;5054465;28;21004;-69
2023/03/20 11:09:34;;;;;;;59.97;4.07;;;;;;;;;;5054310;28;20840;-69
2023/03/20 11:12:02;;;;;;;59.77;4.53;;;;;;;;;;5054495;28;20448;-69
2023/03/20 11:14:33;;;;;;;59.37;4.53;;;;;;;;;;5054342;28;20458;-70
2023/03/20 11:17:03;;;;;;;59.37;4.80;;;;;;;;;;5054295;28;20490;-70
2023/03/20 11:19:33;;;;;;;60.07;4.80;;;;;;;;;;5054423;28;20836;-69
2023/03/20 11:22:02;;;;;;;59.60;5.33;;;;;;;;;;5054247;28;20945;-69
2023/03/20 11:24:36;;;;;;;60.37;5.43;;;;;;;;;;5054312;28;20879;-70
2023/03/20 11:27:07;;;;;;;60.10;5.43;;;;;;;;;;5054110;28;20900;-69
2023/03/20 11:29:35;;;;;;;61.70;6.30;;;;;;;;;;5053804;28;20460;-69
2023/03/20 11:32:08;;;;;;;60.07;6.00;;;;;;;;;;5054218;28;20547;-70
2023/03/20 11:34:39;;;;;;;60.60;5.60;;;;;;;;;;5054138;28;20452;-70
2023/03/20 11:37:08;;;;;;;59.97;5.57;;;;;;;;;;5052778;28;20516;-70
2023/03/20 11:39:36;;;;;;;60.90;5.73;;;;;;;;;;5053543;28;20531;-69
2023/03/20 11:42:04;;;;;;;62.27;6.03;;;;;;;;;;5054135;28;20452;-69
2023/03/20 11:44:32;;;;;;;60.30;6.10;;;;;;;;;;5053995;28;20543;-69
2023/03/20 11:47:02;;;;;;;60.80;5.50;;;;;;;;;;5053662;28;20476;-70
2023/03/20 11:49:31;;;;;;;64.50;6.90;;;;;;;;;;5053448;28;20892;-69
2023/03/20 11:52:01;;;;;;;60.97;6.60;;;;;;;;;;5053578;28;20543;-70
2023/03/20 11:54:29;;;;;;;62.07;6.30;;;;;;;;;;5054227;28;20454;-69
2023/03/20 11:56:57;;;;;;;60.30;5.83;;;;;;;;;;5053650;28;20479;-69
2023/03/20 11:59:26;;;;;;;61.27;6.03;;;;;;;;;;5053286;28;20448;-69
2023/03/20 12:01:55;;;;;;;61.20;6.90;;;;;;;;;;5053641;28;20482;-69
2023/03/20 12:04:27;;;;;;;61.60;6.00;;;;;;;;;;5053397;28;20444;-69
2023/03/20 12:06:57;;;;;;;63.87;7.40;;;;;;;;;;5053708;28;20470;-70
2023/03/20 12:09:32;;;;;;;60.90;6.37;;;;;;;;;;5053258;28;20503;-70
2023/03/20 12:12:01;;;;;;;60.20;6.10;;;;;;;;;;5053533;28;20447;-69
2023/03/20 12:14:32;;;;;;;60.50;5.87;;;;;;;;;;5053349;28;20535;-69
2023/03/20 12:17:12;;;;;;;62.40;6.50;;;;;;;;;;5052807;28;20491;-70
2023/03/20 12:19:41;;;;;;;62.37;6.43;;;;;;;;;;5052840;28;20459;-70
2023/03/20 12:22:14;;;;;;;62.63;6.43;;;;;;;;;;5053402;28;20831;-69
2023/03/20 12:24:43;;;;;;;62.03;6.00;;;;;;;;;;5053241;28;20452;-68
2023/03/20 12:27:17;;;;;;;61.63;5.83;;;;;;;;;;5053016;28;20496;-68
2023/03/20 12:29:48;;;;;;;60.17;5.47;;;;;;;;;;5052893;28;20455;-69
2023/03/20 12:32:17;;;;;;;60.97;5.97;;;;;;;;;;5053175;28;20458;-68
2023/03/20 12:34:46;;;;;;;61.10;5.30;;;;;;;;;;5052827;28;20448;-68
2023/03/20 12:37:17;;;;;;;61.07;5.50;;;;;;;;;;5052833;28;20500;-68
2023/03/20 12:39:48;;;;;;;59.83;5.20;;;;;;;;;;5052422;28;20542;-68
2023/03/20 12:42:21;;;;;;;59.77;5.60;;;;;;;;;;5052712;28;20548;-68
2023/03/20 12:44:49;;;;;;;59.97;5.20;;;;;;;;;;5052768;28;20448;-68
2023/03/20 12:47:22;;;;;;;60.57;5.57;;;;;;;;;;5052599;28;20550;-68
2023/03/20 12:49:55;;;;;;;59.80;5.27;;;;;;;;;;5051942;28;21040;-68
2023/03/20 12:52:28;;;;;;;59.83;5.37;;;;;;;;;;5052490;28;20458;-68
2023/03/20 12:55:08;;;;;;;62.23;5.70;;;;;;;;;;5052732;28;20448;-68
2023/03/20 12:57:38;;;;;;;60.47;5.23;;;;;;;;;;5052512;28;20494;-68
2023/03/20 13:00:14;;;;;;;60.40;6.00;;;;;;;;;;5052001;28;20961;-68
2023/03/20 13:02:45;;;;;;;60.50;5.73;;;;;;;;;;5052244;28;20543;-68
2023/03/20 13:05:22;;;;;;;60.67;6.10;;;;;;;;;;5052553;28;20444;-68
2023/03/20 13:08:13;;;;;;;59.60;5.00;;;24.00;99.90;;;;;;5052414;28;20472;-68
2023/03/20 13:10:41;;;;;;;59.70;5.10;;;25.30;99.90;;;;;;5052030;28;20458;-68
2023/03/20 13:13:18;;;;;;;59.90;5.27;;;24.00;99.90;;;;;;5052092;28;20464;-68
2023/03/20 13:15:54;;;;;;;61.57;5.90;;;23.20;99.90;;;;;;5052066;28;20454;-68
2023/03/20 13:18:28;;;;;;;60.87;5.43;;;22.20;99.90;;;;;;5052025;28;20471;-68
2023/03/20 13:20:56;;;;;;;59.77;5.10;;;20.50;99.90;;;;;;5051872;28;20530;-68
2023/03/20 13:23:31;;;;;;;59.80;5.00;;;20.20;99.90;;;;;;5051893;28;20447;-68
2023/03/20 13:26:13;;;;;;;60.50;5.27;;;20.70;99.90;;;;;;5052102;28;20448;-68
2023/03/20 13:28:50;;;;;;;59.67;5.03;;;20.90;99.90;;;;;;5051807;28;20452;-68
2023/03/20 13:31:26;;;;;;;59.90;5.20;;;19.70;99.90;;;;;;5052037;28;20466;-68
2023/03/20 13:34:00;;;;;;;60.37;5.67;;;20.20;99.90;;;;;;5051860;28;20452;-68
2023/03/20 13:36:36;;;;;;;60.27;5.20;;;;;;;;;;5051936;28;20488;-68
2023/03/20 13:39:14;;;;;;;64.53;5.43;;;22.70;99.90;;;;;;5051662;28;20460;-68
2023/03/20 13:41:42;;;;;;;60.97;5.73;;;23.70;99.90;;;;;;5051831;28;20972;-68
2023/03/20 13:44:10;;;;;;;59.37;4.83;;;23.90;99.90;;;;;;5051769;28;20452;-68
2023/03/20 13:46:44;;;;;;;59.87;5.23;;;23.10;99.90;;;;;;5051492;28;20521;-68
2023/03/20 13:49:18;;;;;;;59.97;5.50;;;22.70;99.90;;;;;;5051359;28;20949;-69
2023/03/20 13:51:53;;;;;;;59.87;5.37;;;;;;;;;;5051856;28;20447;-69
2023/03/20 13:54:28;;;;;;;60.97;5.47;;;;;;;;;;5051622;28;20456;-69
2023/03/20 13:57:00;;;;;;;63.33;6.00;;;22.20;99.90;;;;;;5051452;28;20487;-68
2023/03/20 13:59:47;;;;;;;59.97;5.27;;;;;;;;;;5051193;28;20448;-68
2023/03/20 14:02:30;;;;;;;60.77;4.60;;;21.50;99.90;;;;;;5051490;28;20452;-69
2023/03/20 14:05:01;;;;;;;60.77;5.87;;;;;;;;;;5051636;28;20452;-69